Time;durP1;ratioP1;P1;durP2;ratioP2;P2;SDS_P1;SDS_P2;PMS_P1;PMS_P2;Temp;Humidity;BMP_temperature;BMP_pressure;BME280_temperature;BME280_humidity;BME280_pressure;Samples;Min_cycle;Max_cycle;Signal;HPM_P1;HPM_P2
2023/07/09 00:00:48;;;;;;;2.63;1.97;;;21.30;99.90;;;;;;5035623;28;20575;-85
2023/07/09 00:03:15;;;;;;;5.60;2.60;;;21.20;99.90;;;;;;5037600;28;20552;-86
2023/07/09 00:05:40;;;;;;;4.50;2.80;;;21.20;99.90;;;;;;5036049;28;20439;-84
2023/07/09 00:08:24;;;;;;;8.30;3.03;;;21.00;99.90;;;;;;5042540;28;20931;-86
2023/07/09 00:10:50;;;;;;;9.33;3.00;;;21.20;99.90;;;;;;5046010;28;20860;-86
2023/07/09 00:13:15;;;;;;;4.67;2.80;;;21.20;99.90;;;;;;5038323;28;20530;-85
2023/07/09 00:15:41;;;;;;;4.10;3.10;;;21.30;99.90;;;;;;5039610;28;20197;-87
2023/07/09 00:18:08;;;;;;;5.07;2.60;;;21.30;99.90;;;;;;5037044;28;20271;-84
2023/07/09 00:20:35;;;;;;;4.47;2.57;;;21.30;99.90;;;;;;5043015;28;20240;-86
2023/07/09 00:23:04;;;;;;;4.70;2.50;;;21.40;99.90;;;;;;5044968;28;20459;-87
2023/07/09 00:25:30;;;;;;;3.60;2.43;;;21.30;99.90;;;;;;5046629;28;20458;-86
2023/07/09 00:27:56;;;;;;;3.33;2.53;;;21.20;99.90;;;;;;5042617;28;20429;-85
2023/07/09 00:30:22;;;;;;;3.60;2.10;;;21.00;99.90;;;;;;5038898;28;20533;-84
2023/07/09 00:32:49;;;;;;;7.43;2.87;;;21.00;99.90;;;;;;5038830;28;20853;-83
2023/07/09 00:35:15;;;;;;;3.30;2.30;;;20.90;99.90;;;;;;5030192;28;20443;-86
2023/07/09 00:37:43;;;;;;;3.87;2.53;;;20.90;99.90;;;;;;5035033;28;21374;-85
2023/07/09 00:40:18;;;;;;;4.13;2.80;;;21.00;99.90;;;;;;5035759;28;20209;-87
2023/07/09 00:42:52;;;;;;;4.70;3.20;;;21.00;99.90;;;;;;5041548;28;20473;-84
2023/07/09 00:45:27;;;;;;;6.03;3.23;;;21.00;99.90;;;;;;5029458;28;20823;-84
2023/07/09 00:47:59;;;;;;;6.20;4.50;;;21.00;99.90;;;;;;5037637;28;20530;-86
2023/07/09 00:50:41;;;;;;;7.57;3.60;;;21.10;99.90;;;;;;5034628;28;20455;-86
2023/07/09 00:53:31;;;;;;;6.80;3.83;;;21.10;99.90;;;;;;5036874;28;20436;-87
2023/07/09 00:56:01;;;;;;;8.50;2.60;;;21.00;99.90;;;;;;5024943;28;20450;-84
2023/07/09 00:58:28;;;;;;;4.60;3.30;;;21.00;99.90;;;;;;5035005;28;20439;-84
2023/07/09 01:01:03;;;;;;;6.80;3.60;;;20.90;99.90;;;;;;5034395;28;20467;-85
2023/07/09 01:03:36;;;;;;;4.67;3.63;;;20.90;99.90;;;;;;5035496;28;20569;-86
2023/07/09 01:06:03;;;;;;;6.40;2.70;;;20.90;99.90;;;;;;5036010;28;20436;-85
2023/07/09 01:08:31;;;;;;;5.53;3.80;;;20.70;99.90;;;;;;5036087;28;20864;-86
2023/07/09 01:11:01;;;;;;;6.23;2.80;;;20.60;99.90;;;;;;5046679;28;20534;-85
2023/07/09 01:13:28;;;;;;;6.37;2.50;;;20.50;99.90;;;;;;5039538;28;20449;-87
2023/07/09 01:15:55;;;;;;;3.20;2.47;;;20.50;99.90;;;;;;5037015;28;20443;-87
2023/07/09 01:18:21;;;;;;;6.70;2.97;;;20.50;99.90;;;;;;5037294;28;20470;-84
2023/07/09 01:20:47;;;;;;;6.20;2.70;;;20.50;99.90;;;;;;5036217;28;20467;-87
2023/07/09 01:23:14;;;;;;;7.53;3.07;;;20.50;99.90;;;;;;5032645;28;20212;-86
2023/07/09 01:25:46;;;;;;;6.67;2.83;;;20.50;99.90;;;;;;5041140;28;20435;-83
2023/07/09 01:28:12;;;;;;;4.63;3.13;;;20.50;99.90;;;;;;5033945;28;21070;-86
2023/07/09 01:30:40;;;;;;;6.00;3.77;;;20.50;99.90;;;;;;5035633;28;20928;-85
2023/07/09 01:33:06;;;;;;;5.97;3.23;;;20.40;99.90;;;;;;5040046;28;20509;-87
2023/07/09 01:35:35;;;;;;;7.30;4.00;;;20.40;99.90;;;;;;5036420;28;20536;-87
2023/07/09 01:38:02;;;;;;;5.83;3.67;;;20.40;99.90;;;;;;5034111;28;20439;-86
2023/07/09 01:40:29;;;;;;;7.27;2.90;;;20.50;99.90;;;;;;5031973;28;20545;-86
2023/07/09 01:42:57;;;;;;;5.80;3.93;;;20.40;99.90;;;;;;5044214;28;20857;-86
2023/07/09 01:45:24;;;;;;;3.20;2.50;;;20.40;99.90;;;;;;5039046;28;20442;-87
2023/07/09 01:47:49;;;;;;;4.00;2.03;;;20.30;99.90;;;;;;5038144;28;20471;-87
2023/07/09 01:50:16;;;;;;;7.37;3.50;;;20.20;99.90;;;;;;5033032;28;20582;-85
2023/07/09 01:52:43;;;;;;;4.90;3.17;;;20.20;99.90;;;;;;5032967;28;20297;-85
2023/07/09 01:55:11;;;;;;;5.30;2.60;;;22.80;99.90;;;;;;5036143;28;20431;-87
2023/07/09 01:57:37;;;;;;;7.40;3.30;;;;;;;;;;5030065;28;20425;-85
2023/07/09 02:00:11;;;;;;;4.20;2.90;;;20.20;99.90;;;;;;5034779;28;20459;-87
2023/07/09 02:02:38;;;;;;;5.80;3.63;;;20.20;99.90;;;;;;5033970;28;20455;-86
2023/07/09 02:05:05;;;;;;;5.40;2.87;;;20.30;99.90;;;;;;5031978;28;20975;-86
2023/07/09 02:07:31;;;;;;;4.60;2.43;;;20.30;99.90;;;;;;5034493;28;20431;-87
2023/07/09 02:09:58;;;;;;;3.83;2.73;;;20.20;99.90;;;;;;5035933;28;20509;-86
2023/07/09 02:12:24;;;;;;;4.83;3.30;;;20.20;99.90;;;;;;5052592;28;20203;-86
2023/07/09 02:14:49;;;;;;;6.23;3.40;;;20.10;99.90;;;;;;5042790;28;20447;-85
2023/07/09 02:17:15;;;;;;;9.37;3.57;;;20.10;99.90;;;;;;5029001;28;20193;-86
2023/07/09 02:19:41;;;;;;;7.00;4.53;;;20.10;99.90;;;;;;5036987;28;20630;-87
2023/07/09 02:22:08;;;;;;;4.40;3.10;;;20.10;99.90;;;;;;5041170;28;21217;-85
2023/07/09 02:24:34;;;;;;;6.83;3.13;;;20.10;99.90;;;;;;5057881;28;20189;-86
2023/07/09 02:27:01;;;;;;;6.13;3.10;;;20.00;99.90;;;;;;5041321;28;20593;-86
2023/07/09 02:29:28;;;;;;;5.50;2.90;;;19.90;99.90;;;;;;5035387;28;20463;-86
2023/07/09 02:31:56;;;;;;;4.73;3.27;;;19.90;99.90;;;;;;5036393;28;20480;-87
2023/07/09 02:34:25;;;;;;;6.50;3.37;;;19.80;99.90;;;;;;5035097;28;20455;-87
2023/07/09 02:36:54;;;;;;;5.03;2.90;;;19.90;99.90;;;;;;5036866;28;20463;-86
2023/07/09 02:39:20;;;;;;;3.33;2.80;;;19.80;99.90;;;;;;5044575;28;20455;-86
2023/07/09 02:41:46;;;;;;;3.53;2.40;;;19.80;99.90;;;;;;5039587;28;20482;-87
2023/07/09 02:44:11;;;;;;;3.87;2.90;;;19.90;99.90;;;;;;5042832;28;20463;-87
2023/07/09 02:46:37;;;;;;;4.20;2.47;;;19.80;99.90;;;;;;5037207;28;20187;-86
2023/07/09 02:49:04;;;;;;;5.33;3.03;;;19.60;99.90;;;;;;5034274;28;20713;-85
2023/07/09 02:51:30;;;;;;;6.47;2.80;;;19.50;99.90;;;;;;5042159;28;20255;-85
2023/07/09 02:53:57;;;;;;;5.80;4.10;;;19.50;99.90;;;;;;5033695;28;20863;-87
2023/07/09 02:56:23;;;;;;;6.40;3.00;;;;;;;;;;5033305;28;20435;-86
2023/07/09 02:58:50;;;;;;;7.60;3.67;;;19.20;99.90;;;;;;5026951;28;21135;-87
2023/07/09 03:01:15;;;;;;;5.60;2.70;;;19.20;99.90;;;;;;5034362;28;20552;-85
2023/07/09 03:03:41;;;;;;;3.00;2.50;;;19.10;99.90;;;;;;5031001;28;20467;-86
2023/07/09 03:06:07;;;;;;;6.50;3.57;;;19.10;99.90;;;;;;5033321;28;20192;-86
2023/07/09 03:08:33;;;;;;;4.73;2.53;;;;;;;;;;5027642;28;20191;-86
2023/07/09 03:10:59;;;;;;;5.40;3.20;;;;;;;;;;5040475;28;20228;-86
2023/07/09 03:13:24;;;;;;;6.03;3.30;;;18.90;99.90;;;;;;5043733;28;20549;-87
2023/07/09 03:15:57;;;;;;;7.70;3.93;;;19.10;99.90;;;;;;5040066;28;20431;-84
2023/07/09 03:18:23;;;;;;;6.50;2.97;;;19.10;99.90;;;;;;5035987;28;20185;-86
2023/07/09 03:20:49;;;;;;;7.20;4.00;;;19.70;99.90;;;;;;5038683;28;20495;-87
2023/07/09 03:23:14;;;;;;;6.83;4.13;;;19.10;99.90;;;;;;5037140;28;20467;-86
2023/07/09 03:25:44;;;;;;;5.70;3.97;;;19.10;99.90;;;;;;5034989;28;20238;-86
2023/07/09 03:28:11;;;;;;;3.63;2.40;;;19.00;99.90;;;;;;5035519;28;20216;-86
2023/07/09 03:30:44;;;;;;;4.60;2.90;;;18.90;99.90;;;;;;5039117;28;21588;-87
2023/07/09 03:33:10;;;;;;;5.00;3.27;;;18.80;99.90;;;;;;5046303;28;21036;-86
2023/07/09 03:35:38;;;;;;;8.50;3.87;;;18.80;99.90;;;;;;5037130;28;20451;-87
2023/07/09 03:38:04;;;;;;;7.47;3.63;;;18.80;99.90;;;;;;5032775;28;20790;-86
2023/07/09 03:40:30;;;;;;;5.53;3.50;;;18.90;99.90;;;;;;5035243;28;20520;-87
2023/07/09 03:42:55;;;;;;;7.23;4.07;;;18.90;99.90;;;;;;5044064;28;20459;-86
2023/07/09 03:45:21;;;;;;;6.30;4.43;;;18.90;99.90;;;;;;5043434;28;20178;-87
2023/07/09 03:47:47;;;;;;;5.30;3.53;;;;;;;;;;5032173;28;22447;-87
2023/07/09 03:50:12;;;;;;;5.37;4.00;;;19.00;99.90;;;;;;5035830;28;20196;-85
2023/07/09 03:52:38;;;;;;;7.87;5.30;;;;;;;;;;5033784;28;20455;-85
2023/07/09 03:55:04;;;;;;;9.80;5.17;;;19.10;99.90;;;;;;5035744;28;20613;-86
2023/07/09 03:57:33;;;;;;;5.33;3.87;;;19.20;99.90;;;;;;5036249;28;20957;-85
2023/07/09 03:59:59;;;;;;;6.77;3.93;;;19.20;99.90;;;;;;5049579;28;20549;-85
2023/07/09 04:02:24;;;;;;;8.90;4.50;;;19.20;99.90;;;;;;5034619;28;20561;-86
2023/07/09 04:04:50;;;;;;;4.60;3.37;;;19.20;99.90;;;;;;5032617;28;20340;-84
2023/07/09 04:07:16;;;;;;;5.10;3.20;;;19.30;99.90;;;;;;5037895;28;20177;-85
2023/07/09 04:09:41;;;;;;;3.50;3.00;;;19.40;99.90;;;;;;5032653;28;20215;-87
2023/07/09 04:12:08;;;;;;;4.73;3.93;;;20.30;99.90;;;;;;5043249;28;20864;-86
2023/07/09 04:14:34;;;;;;;9.40;4.10;;;19.60;99.90;;;;;;5047354;28;21068;-86
2023/07/09 04:16:59;;;;;;;10.17;4.30;;;19.70;99.90;;;;;;5040430;28;20431;-86
2023/07/09 04:19:25;;;;;;;7.83;3.57;;;19.80;99.90;;;;;;5055501;28;20204;-87
2023/07/09 04:21:50;;;;;;;4.90;2.70;;;20.00;99.90;;;;;;5046674;28;20181;-85
2023/07/09 04:24:17;;;;;;;6.47;3.70;;;20.50;99.90;;;;;;5045191;28;20765;-86
2023/07/09 04:26:43;;;;;;;6.73;4.40;;;21.60;99.90;;;;;;5037874;28;20186;-85
2023/07/09 04:29:10;;;;;;;6.93;4.10;;;22.90;99.90;;;;;;5029357;28;20962;-84
2023/07/09 04:31:36;;;;;;;3.00;2.70;;;24.30;99.90;;;;;;5036443;28;20188;-85
2023/07/09 04:34:01;;;;;;;6.40;3.70;;;25.30;99.90;;;;;;5036616;28;20473;-86
2023/07/09 04:36:27;;;;;;;6.80;3.80;;;;;;;;;;5035520;28;20458;-84
2023/07/09 04:38:53;;;;;;;7.73;3.90;;;;;;;;;;5043377;28;20185;-85
2023/07/09 04:41:19;;;;;;;5.87;4.43;;;;;;;;;;5040789;28;20497;-84
2023/07/09 04:43:45;;;;;;;7.77;4.00;;;;;;;;;;5044619;28;20465;-86
2023/07/09 04:46:10;;;;;;;7.30;4.73;;;30.60;96.10;;;;;;5045240;28;20518;-84
2023/07/09 04:48:36;;;;;;;6.37;3.93;;;31.80;92.10;;;;;;5032683;28;22188;-88
2023/07/09 04:51:02;;;;;;;6.10;4.37;;;;;;;;;;5040527;28;20234;-84
2023/07/09 04:53:28;;;;;;;6.20;4.27;;;;;;;;;;5036631;28;20672;-84
2023/07/09 04:55:55;;;;;;;5.57;4.17;;;;;;;;;;5053804;28;20434;-84
2023/07/09 04:58:21;;;;;;;6.37;4.67;;;;;;;;;;5034028;28;20438;-85
2023/07/09 05:00:47;;;;;;;6.03;4.70;;;;;;;;;;5039001;28;20470;-87
2023/07/09 05:03:13;;;;;;;9.87;5.67;;;;;;;;;;5034098;28;20471;-85
2023/07/09 05:05:46;;;;;;;10.70;5.50;;;36.90;52.10;;;;;;5049331;28;20430;-85
2023/07/09 05:08:13;;;;;;;8.00;6.00;;;37.00;54.40;;;;;;5038250;28;20523;-85
2023/07/09 05:10:46;;;;;;;8.67;6.13;;;37.90;52.90;;;;;;5036531;28;20452;-85
2023/07/09 05:13:12;;;;;;;13.70;6.60;;;39.10;50.70;;;;;;5042271;28;20454;-86
2023/07/09 05:15:41;;;;;;;7.57;6.57;;;39.50;47.80;;;;;;5046071;28;20442;-87
2023/07/09 05:18:10;;;;;;;7.00;6.30;;;;;;;;;;5037774;28;20440;-85
2023/07/09 05:20:36;;;;;;;6.70;6.10;;;;;;;;;;5034667;28;22130;-86
2023/07/09 05:23:02;;;;;;;7.37;6.17;;;37.70;48.10;;;;;;5037154;28;20546;-88
2023/07/09 05:25:28;;;;;;;9.63;7.37;;;;;;;;;;5036868;28;20234;-86
2023/07/09 05:27:54;;;;;;;8.57;6.90;;;;;;;;;;5035719;28;20537;-86
2023/07/09 05:30:20;;;;;;;6.73;6.03;;;;;;;;;;5038645;28;21121;-86
2023/07/09 05:32:47;;;;;;;8.40;6.67;;;;;;;;;;5034394;28;21048;-85
2023/07/09 05:35:12;;;;;;;10.93;7.40;;;;;;;;;;5038148;28;20624;-85
2023/07/09 05:37:39;;;;;;;8.43;7.53;;;;;;;;;;5030010;28;20457;-85
2023/07/09 05:40:08;;;;;;;9.63;8.83;;;39.40;46.30;;;;;;5038665;28;20530;-86
2023/07/09 05:42:34;;;;;;;8.67;7.97;;;40.70;45.50;;;;;;5043897;28;20463;-86
2023/07/09 05:45:00;;;;;;;9.00;8.20;;;;;;;;;;5043809;28;20438;-86
2023/07/09 05:47:27;;;;;;;9.80;8.57;;;;;;;;;;5057615;28;20442;-85
2023/07/09 05:49:53;;;;;;;9.30;8.10;;;;;;;;;;5035140;28;21174;-89
2023/07/09 05:52:21;;;;;;;8.63;8.00;;;40.00;42.50;;;;;;5036428;28;20446;-88
2023/07/09 05:54:49;;;;;;;9.17;8.40;;;40.90;42.60;;;;;;5037457;28;20434;-89
2023/07/09 05:57:15;;;;;;;12.60;8.67;;;;;;;;;;5045975;28;21086;-86
2023/07/09 05:59:41;;;;;;;8.67;7.80;;;;;;;;;;5046521;28;20487;-86
2023/07/09 06:02:14;;;;;;;12.63;8.93;;;40.90;43.40;;;;;;5043660;28;20201;-85
2023/07/09 06:04:41;;;;;;;9.67;8.77;;;;;;;;;;5039622;28;20550;-87
2023/07/09 06:07:08;;;;;;;9.20;8.50;;;;;;;;;;5047609;28;20889;-86
2023/07/09 06:09:34;;;;;;;8.30;7.70;;;;;;;;;;5027126;28;20485;-85
2023/07/09 06:12:01;;;;;;;9.17;8.30;;;;;;;;;;5037295;28;20432;-86
2023/07/09 06:14:27;;;;;;;8.87;8.27;;;;;;;;;;5043428;28;20636;-87
2023/07/09 06:16:53;;;;;;;9.53;8.80;;;;;;;;;;5053179;28;21478;-87
2023/07/09 06:19:18;;;;;;;8.80;8.20;;;;;;;;;;5045078;28;20459;-88
2023/07/09 06:21:44;;;;;;;9.70;8.70;;;;;;;;;;5036084;28;20505;-89
2023/07/09 06:24:10;;;;;;;9.73;8.93;;;;;;;;;;5035224;28;20481;-88
2023/07/09 06:26:36;;;;;;;9.90;9.07;;;;;;;;;;5038910;28;20486;-88
2023/07/09 06:29:02;;;;;;;9.80;9.00;;;;;;;;;;5036534;28;20475;-87
2023/07/09 06:31:28;;;;;;;11.03;10.07;;;;;;;;;;5036526;28;20842;-88
2023/07/09 06:33:54;;;;;;;11.57;10.63;;;;;;;;;;5035461;28;20276;-87
2023/07/09 06:36:20;;;;;;;9.50;8.80;;;;;;;;;;5035485;28;20446;-87
2023/07/09 06:38:46;;;;;;;9.70;8.70;;;;;;;;;;5047519;28;20554;-88
2023/07/09 06:41:13;;;;;;;10.43;9.30;;;;;;;;;;5041173;28;20227;-88
2023/07/09 06:43:39;;;;;;;10.57;9.70;;;;;;;;;;5053211;28;20467;-86
2023/07/09 06:46:06;;;;;;;10.23;9.37;;;44.90;37.10;;;;;;5031658;28;20443;-88
2023/07/09 06:48:33;;;;;;;10.53;9.63;;;;;;;;;;5035227;28;20434;-87
2023/07/09 06:51:00;;;;;;;10.87;10.07;;;46.80;34.80;;;;;;5037487;28;20451;-87
2023/07/09 06:53:26;;;;;;;11.47;10.50;;;46.50;34.10;;;;;;5053386;28;20438;-88
2023/07/09 06:55:55;;;;;;;11.17;10.37;;;;;;;;;;5034621;28;20431;-87
2023/07/09 06:58:21;;;;;;;11.43;10.63;;;;;;;;;;5033702;28;20535;-86
2023/07/09 07:00:49;;;;;;;11.40;10.57;;;46.20;33.50;;;;;;5030028;28;20447;-85
2023/07/09 07:03:15;;;;;;;12.13;11.13;;;;;;;;;;5027212;28;20521;-86
2023/07/09 07:05:49;;;;;;;11.93;11.10;;;46.80;37.50;;;;;;5027927;28;20498;-88
2023/07/09 07:08:16;;;;;;;11.97;11.07;;;46.00;32.50;;;;;;5032187;28;20435;-86
2023/07/09 07:10:42;;;;;;;11.53;10.50;;;;;;;;;;5034237;28;20478;-86
2023/07/09 07:13:08;;;;;;;10.90;10.20;;;;;;;;;;5033501;28;20450;-85
2023/07/09 07:15:36;;;;;;;11.33;10.23;;;46.10;33.60;;;;;;5036344;28;20949;-85
2023/07/09 07:18:03;;;;;;;11.13;10.23;;;;;;;;;;5040657;28;20446;-86
2023/07/09 07:20:30;;;;;;;12.20;11.30;;;;;;;;;;5036941;28;20925;-87
2023/07/09 07:22:56;;;;;;;13.13;11.83;;;;;;;;;;5036111;28;20482;-88
2023/07/09 07:25:22;;;;;;;11.03;10.30;;;;;;;;;;5034482;28;20955;-85
2023/07/09 07:27:48;;;;;;;11.50;10.53;;;;;;;;;;5037956;28;20442;-87
2023/07/09 07:30:14;;;;;;;12.30;11.20;;;;;;;;;;5039137;28;20535;-87
2023/07/09 07:32:46;;;;;;;11.90;11.10;;;49.00;29.40;;;;;;5034931;28;20461;-89
2023/07/09 07:35:13;;;;;;;12.80;11.80;;;;;;;;;;5037921;28;20582;-88
2023/07/09 07:37:39;;;;;;;11.07;10.23;;;;;;;;;;5039322;28;20439;-89
2023/07/09 07:40:05;;;;;;;12.57;11.37;;;;;;;;;;5053335;28;20601;-87
2023/07/09 07:42:31;;;;;;;11.50;10.67;;;;;;;;;;5051141;28;20493;-88
2023/07/09 07:44:58;;;;;;;11.63;10.77;;;;;;;;;;5038733;28;20438;-87
2023/07/09 07:47:24;;;;;;;12.23;11.37;;;;;;;;;;5036793;28;20435;-88
2023/07/09 07:49:50;;;;;;;12.73;11.73;;;;;;;;;;5037186;28;20550;-86
2023/07/09 07:52:16;;;;;;;10.83;10.23;;;;;;;;;;5038145;28;20431;-84
2023/07/09 07:54:42;;;;;;;11.60;10.70;;;;;;;;;;5030196;28;20802;-87
2023/07/09 07:57:09;;;;;;;11.47;10.67;;;;;;;;;;5033523;28;20551;-85
2023/07/09 07:59:35;;;;;;;13.90;9.93;;;;;;;;;;5028230;28;21533;-85
2023/07/09 08:02:02;;;;;;;11.93;11.03;;;44.90;32.70;;;;;;5042969;28;20446;-86
2023/07/09 08:04:28;;;;;;;11.33;10.53;;;;;;;;;;5034815;28;20583;-88
2023/07/09 08:06:54;;;;;;;11.70;10.80;;;;;;;;;;5031741;28;20849;-88
2023/07/09 08:09:20;;;;;;;10.33;9.67;;;;;;;;;;5034992;28;20258;-87
2023/07/09 08:11:46;;;;;;;11.70;10.73;;;;;;;;;;5035863;28;20518;-87
2023/07/09 08:14:12;;;;;;;11.83;10.97;;;;;;;;;;5041298;28;20680;-87
2023/07/09 08:16:38;;;;;;;12.80;12.10;;;;;;;;;;5039569;28;20962;-88
2023/07/09 08:19:05;;;;;;;11.50;10.80;;;;;;;;;;5028769;28;20431;-86
2023/07/09 08:21:31;;;;;;;11.20;10.60;;;;;;;;;;5036463;28;20442;-86
2023/07/09 08:23:57;;;;;;;11.27;10.33;;;;;;;;;;5038991;28;20463;-89
2023/07/09 08:26:24;;;;;;;12.57;11.70;;;;;;;;;;5053950;28;20454;-87
2023/07/09 08:28:50;;;;;;;11.83;10.97;;;;;;;;;;5036013;28;20940;-87
2023/07/09 08:31:16;;;;;;;12.97;12.17;;;;;;;;;;5036407;28;20873;-86
2023/07/09 08:33:42;;;;;;;12.40;11.50;;;;;;;;;;5041759;28;20443;-87
2023/07/09 08:36:08;;;;;;;11.20;10.50;;;;;;;;;;5058355;28;20445;-87
2023/07/09 08:38:34;;;;;;;11.50;10.60;;;;;;;;;;5050946;28;20562;-86
2023/07/09 08:41:06;;;;;;;12.57;11.63;;;48.80;26.90;;;;;;5037761;28;20696;-88
2023/07/09 08:43:32;;;;;;;12.07;11.23;;;;;;;;;;5034267;28;20516;-88
2023/07/09 08:46:07;;;;;;;11.80;11.00;;;48.40;27.40;;;;;;5035661;28;20442;-86
2023/07/09 08:48:33;;;;;;;11.80;10.80;;;48.60;27.10;;;;;;5034506;28;20468;-88
2023/07/09 08:51:06;;;;;;;13.77;12.70;;;48.70;27.00;;;;;;5054217;28;20489;-88
2023/07/09 08:53:48;;;;;;;11.30;10.50;;;47.80;26.60;;;;;;5025333;28;20452;-86
2023/07/09 08:56:15;;;;;;;11.90;11.00;;;48.50;26.50;;;;;;5036441;28;20450;-89
2023/07/09 08:58:41;;;;;;;11.93;11.03;;;;;;;;;;5032154;28;20444;-87
2023/07/09 09:01:19;;;;;;;11.40;10.70;;;48.30;26.50;;;;;;5044404;28;21092;-87
2023/07/09 09:03:51;;;;;;;10.77;9.97;;;48.40;26.50;;;;;;5034498;28;20465;-86
2023/07/09 09:06:22;;;;;;;12.03;11.10;;;48.70;26.30;;;;;;5031791;28;20431;-88
2023/07/09 09:09:09;;;;;;;12.67;11.57;;;48.90;33.70;;;;;;5033945;28;20439;-88
2023/07/09 09:11:51;;;;;;;11.97;11.07;;;49.00;26.10;;;;;;5040298;28;20435;-85
2023/07/09 09:14:23;;;;;;;12.07;11.20;;;48.20;27.90;;;;;;5021468;28;20435;-88
2023/07/09 09:16:51;;;;;;;11.67;10.87;;;48.30;26.20;;;;;;5032847;28;20607;-89
2023/07/09 09:19:27;;;;;;;11.30;10.60;;;48.40;26.00;;;;;;5032531;28;20459;-86
2023/07/09 09:22:01;;;;;;;10.43;9.73;;;48.40;26.30;;;;;;5037674;28;20938;-87
2023/07/09 09:24:34;;;;;;;10.57;9.60;;;47.90;25.90;;;;;;5032775;28;20459;-88
2023/07/09 09:27:00;;;;;;;11.13;10.40;;;;;;;;;;5036595;28;20810;-87
2023/07/09 09:29:29;;;;;;;13.03;9.27;;;;;;;;;;5040248;28;20467;-87
2023/07/09 09:31:57;;;;;;;10.40;9.80;;;46.20;26.90;;;;;;5052230;28;20510;-88
2023/07/09 09:34:27;;;;;;;9.53;8.80;;;45.70;27.20;;;;;;5042306;28;20430;-89
2023/07/09 09:36:53;;;;;;;9.93;8.93;;;;;;;;;;5036491;28;20435;-88
2023/07/09 09:39:20;;;;;;;8.73;8.10;;;46.30;27.00;;;;;;5048601;28;20566;-89
2023/07/09 09:41:46;;;;;;;10.60;9.93;;;;;;;;;;5037948;28;20487;-86
2023/07/09 09:44:26;;;;;;;10.60;9.90;;;46.80;26.40;;;;;;5039581;28;21231;-88
2023/07/09 09:46:52;;;;;;;10.23;9.63;;;;;;;;;;5038663;28;20492;-90
2023/07/09 09:49:18;;;;;;;9.87;9.27;;;;;;;;;;5039417;28;20521;-87
2023/07/09 09:51:46;;;;;;;10.97;10.07;;;44.90;27.50;;;;;;5054392;28;20452;-90
2023/07/09 09:54:20;;;;;;;11.47;9.20;;;43.70;28.20;;;;;;5040385;28;20431;-88
2023/07/09 09:56:50;;;;;;;9.40;8.80;;;43.40;28.60;;;;;;5040678;28;20955;-88
2023/07/09 09:59:30;;;;;;;11.17;10.40;;;43.50;28.20;;;;;;5037292;28;20856;-88
2023/07/09 10:02:02;;;;;;;11.20;10.50;;;42.80;28.60;;;;;;5026501;28;20493;-87
2023/07/09 10:04:28;;;;;;;10.17;9.60;;;;;;;;;;5032448;28;20493;-88
2023/07/09 10:07:03;;;;;;;11.30;9.60;;;42.60;29.20;;;;;;5036531;28;22150;-89
2023/07/09 10:09:29;;;;;;;11.83;10.73;;;;;;;;;;5034483;28;20211;-88
2023/07/09 10:12:08;;;;;;;10.27;9.67;;;42.70;29.10;;;;;;5052537;28;20794;-88
2023/07/09 10:15:10;;;;;;;9.90;9.00;;;42.80;28.70;;;;;;5025838;28;20204;-90
2023/07/09 10:17:57;;;;;;;9.40;8.80;;;43.50;31.70;;;;;;5030019;28;20478;-89
2023/07/09 10:20:51;;;;;;;10.77;9.97;;;43.70;29.60;;;;;;5033084;28;20558;-90
2023/07/09 10:23:19;;;;;;;11.80;10.97;;;42.10;29.90;;;;;;5035796;28;20474;-89
2023/07/09 10:25:57;;;;;;;10.73;10.00;;;41.90;31.00;;;;;;5051219;28;20489;-88
2023/07/09 10:29:10;;;;;;;8.93;8.33;;;42.20;29.60;;;;;;5032439;28;20439;-89
2023/07/09 10:31:54;;;;;;;9.70;8.90;;;42.40;29.80;;;;;;5031283;28;20478;-88
2023/07/09 10:34:34;;;;;;;9.93;9.10;;;42.10;29.80;;;;;;5037352;28;20478;-87
2023/07/09 10:37:26;;;;;;;9.90;8.90;;;42.40;31.00;;;;;;5037890;28;20431;-88
2023/07/09 10:39:57;;;;;;;9.73;9.13;;;41.90;29.70;;;;;;5031555;28;20613;-89
2023/07/09 10:42:29;;;;;;;9.60;8.90;;;40.30;27.50;;;;;;5029704;28;21136;-88
2023/07/09 10:45:32;;;;;;;6.60;6.10;;;38.90;28.80;;;;;;5025800;28;20931;-89
2023/07/09 10:48:06;;;;;;;9.07;8.57;;;38.50;30.00;;;;;;5022884;28;20434;-88
2023/07/09 10:50:39;;;;;;;9.03;8.23;;;37.30;32.20;;;;;;5047664;28;20469;-89
2023/07/09 10:53:36;;;;;;;8.73;7.87;;;37.20;32.70;;;;;;5035842;28;20433;-88
2023/07/09 10:56:16;;;;;;;11.20;10.30;;;35.70;33.60;;;;;;5024599;28;20527;-89
2023/07/09 10:58:53;;;;;;;13.03;11.87;;;36.00;33.00;;;;;;5044816;28;20434;-87
2023/07/09 11:01:28;;;;;;;10.33;9.53;;;36.10;29.60;;;;;;5029795;28;20509;-88
2023/07/09 11:03:59;;;;;;;11.40;10.30;;;35.70;31.00;;;;;;5037198;28;20567;-89
2023/07/09 11:06:39;;;;;;;9.53;8.73;;;35.70;31.60;;;;;;5051454;28;20450;-87
2023/07/09 11:09:22;;;;;;;9.13;8.43;;;35.30;30.10;;;;;;5037264;28;20441;-86
2023/07/09 11:11:52;;;;;;;13.33;9.03;;;35.30;31.80;;;;;;5053696;28;20536;-84
2023/07/09 11:14:43;;;;;;;8.70;8.00;;;35.20;32.20;;;;;;5047005;28;20440;-88
2023/07/09 11:17:15;;;;;;;8.60;7.97;;;35.20;32.60;;;;;;5038761;28;20465;-86
2023/07/09 11:19:46;;;;;;;8.10;7.37;;;35.20;32.60;;;;;;5038571;28;20577;-85
2023/07/09 11:22:17;;;;;;;8.30;7.60;;;35.70;32.80;;;;;;5041452;28;20442;-85
2023/07/09 11:25:09;;;;;;;8.00;7.43;;;35.50;33.20;;;;;;5043554;28;20506;-85
2023/07/09 11:27:48;;;;;;;8.17;7.40;;;35.20;33.70;;;;;;5045343;28;20426;-83
2023/07/09 11:30:23;;;;;;;8.03;7.40;;;35.20;33.30;;;;;;5033457;28;20468;-85
2023/07/09 11:33:03;;;;;;;7.60;6.87;;;35.20;34.00;;;;;;5034574;28;20477;-85
2023/07/09 11:35:46;;;;;;;7.93;7.33;;;35.30;34.00;;;;;;5029726;28;20456;-85
2023/07/09 11:38:23;;;;;;;9.43;8.30;;;35.40;33.70;;;;;;5035157;28;20531;-88
2023/07/09 11:40:54;;;;;;;7.63;6.93;;;35.20;35.10;;;;;;5030329;28;20558;-85
2023/07/09 11:43:33;;;;;;;8.40;7.67;;;35.60;33.40;;;;;;5033635;28;20910;-87
2023/07/09 11:46:23;;;;;;;7.33;6.70;;;35.70;32.10;;;;;;5031108;28;20520;-88
2023/07/09 11:48:50;;;;;;;8.53;7.83;;;35.80;32.90;;;;;;5048496;28;21018;-87
2023/07/09 11:51:27;;;;;;;8.37;7.60;;;36.00;32.00;;;;;;5049181;28;21181;-87
2023/07/09 11:53:53;;;;;;;8.50;7.60;;;36.00;31.40;;;;;;5028007;28;20797;-87
2023/07/09 11:56:21;;;;;;;8.13;7.43;;;36.10;31.00;;;;;;5031454;28;20449;-87
2023/07/09 11:58:56;;;;;;;7.40;6.80;;;36.10;31.50;;;;;;5034202;28;20485;-88
2023/07/09 12:01:26;;;;;;;8.00;7.20;;;36.40;32.30;;;;;;5025745;28;20472;-87
2023/07/09 12:03:52;;;;;;;9.33;8.43;;;;;;;;;;5035779;28;20460;-86
2023/07/09 12:06:27;;;;;;;7.90;7.20;;;36.10;30.40;;;;;;5026108;28;20440;-87
2023/07/09 12:08:53;;;;;;;9.40;7.80;;;35.90;30.80;;;;;;5036903;28;20522;-87
2023/07/09 12:11:28;;;;;;;7.93;6.93;;;35.80;31.10;;;;;;5027396;28;21096;-88
2023/07/09 12:14:00;;;;;;;7.77;6.90;;;35.80;30.40;;;;;;5036955;28;20450;-87
2023/07/09 12:16:28;;;;;;;10.60;8.30;;;35.80;30.90;;;;;;5034900;28;21056;-87
2023/07/09 12:18:54;;;;;;;8.33;7.63;;;36.00;30.00;;;;;;5037276;28;20511;-87
2023/07/09 12:21:21;;;;;;;9.73;7.30;;;36.00;30.40;;;;;;5042915;28;21071;-88
2023/07/09 12:23:48;;;;;;;8.80;7.93;;;36.10;31.30;;;;;;5045066;28;20464;-87
2023/07/09 12:26:16;;;;;;;8.57;7.77;;;36.20;31.90;;;;;;5038016;28;20437;-87
2023/07/09 12:28:42;;;;;;;9.70;8.10;;;;;;;;;;5034303;28;20453;-88
2023/07/09 12:31:15;;;;;;;8.07;7.20;;;36.80;29.90;;;;;;5039317;28;20446;-86
2023/07/09 12:33:51;;;;;;;9.83;7.97;;;36.90;29.80;;;;;;5039658;28;21001;-84
2023/07/09 12:36:18;;;;;;;8.20;7.60;;;36.70;29.30;;;;;;5035775;28;20995;-88
2023/07/09 12:38:50;;;;;;;8.30;7.60;;;36.70;30.20;;;;;;5038492;28;20439;-87
2023/07/09 12:41:28;;;;;;;8.03;7.30;;;36.30;30.10;;;;;;5038641;28;20465;-86
2023/07/09 12:43:55;;;;;;;8.27;7.60;;;36.00;30.00;;;;;;5032623;28;20469;-87
2023/07/09 12:46:23;;;;;;;8.80;7.97;;;35.70;30.00;;;;;;5040401;28;20447;-86
2023/07/09 12:48:52;;;;;;;10.33;8.27;;;;;;;;;;5049179;28;22049;-83
2023/07/09 12:51:24;;;;;;;13.73;8.07;;;35.40;31.50;;;;;;5036300;28;20487;-85
2023/07/09 12:54:19;;;;;;;11.00;8.60;;;35.50;32.20;;;;;;5033107;28;20987;-86
2023/07/09 12:56:45;;;;;;;8.60;7.53;;;36.00;30.90;;;;;;5025108;28;20461;-84
2023/07/09 12:59:23;;;;;;;10.63;8.20;;;36.50;29.90;;;;;;5037693;28;20457;-83
2023/07/09 13:01:51;;;;;;;8.60;7.80;;;36.50;29.90;;;;;;5035121;28;20433;-84
2023/07/09 13:04:17;;;;;;;8.30;7.50;;;36.50;29.30;;;;;;5034074;28;20482;-85
2023/07/09 13:06:44;;;;;;;8.10;7.40;;;36.50;29.20;;;;;;5035495;28;20442;-88
2023/07/09 13:09:18;;;;;;;7.90;7.27;;;36.60;29.50;;;;;;5030005;28;20440;-85
2023/07/09 13:11:44;;;;;;;8.50;7.67;;;36.60;29.60;;;;;;5033126;28;21661;-85
2023/07/09 13:14:19;;;;;;;11.63;8.10;;;36.70;29.20;;;;;;5036340;28;20551;-85
2023/07/09 13:16:45;;;;;;;8.37;7.77;;;;;;;;;;5038100;28;21006;-87
2023/07/09 13:19:10;;;;;;;8.77;8.07;;;;;;;;;;5039989;28;20427;-86
2023/07/09 13:21:39;;;;;;;7.00;6.50;;;36.60;29.10;;;;;;5032912;28;20438;-84
2023/07/09 13:24:23;;;;;;;8.97;7.63;;;36.70;29.70;;;;;;5039665;28;20202;-86